Time;durP1;ratioP1;P1;durP2;ratioP2;P2;SDS_P1;SDS_P2;PMS_P1;PMS_P2;Temp;Humidity;BMP_temperature;BMP_pressure;BME280_temperature;BME280_humidity;BME280_pressure;Samples;Min_cycle;Max_cycle;Signal;HPM_P1;HPM_P2
2022/04/11 00:01:15;;;;;;;5.35;2.53;;;2.30;83.70;;;;;;6245305;23;20019;-42
2022/04/11 00:03:42;;;;;;;6.47;2.05;;;2.20;83.90;;;;;;6245176;23;20039;-45
2022/04/11 00:06:08;;;;;;;9.77;3.03;;;2.20;83.90;;;;;;6219315;23;20043;-42
2022/04/11 00:08:35;;;;;;;7.97;2.45;;;2.20;83.90;;;;;;6245459;23;20004;-42
2022/04/11 00:11:02;;;;;;;5.53;2.20;;;2.10;83.90;;;;;;6244952;23;20074;-45
2022/04/11 00:13:29;;;;;;;6.68;1.95;;;2.10;84.20;;;;;;6243154;23;20015;-42
2022/04/11 00:15:56;;;;;;;6.07;2.33;;;2.10;84.30;;;;;;6245100;23;20008;-45
2022/04/11 00:18:23;;;;;;;7.70;2.83;;;2.20;84.40;;;;;;6245021;23;20000;-43
2022/04/11 00:20:50;;;;;;;4.47;1.52;;;2.20;84.20;;;;;;6245257;23;20415;-42
2022/04/11 00:23:18;;;;;;;4.53;1.65;;;2.10;84.20;;;;;;6245103;23;20060;-44
2022/04/11 00:25:47;;;;;;;5.97;2.13;;;2.10;84.40;;;;;;6245130;23;20009;-43
2022/04/11 00:28:14;;;;;;;6.13;1.77;;;2.20;84.50;;;;;;6246025;23;20066;-45
2022/04/11 00:30:41;;;;;;;8.48;2.25;;;2.10;84.50;;;;;;6244174;23;20052;-45
2022/04/11 00:33:12;;;;;;;7.35;2.50;;;2.10;84.50;;;;;;6245387;23;20007;-45
2022/04/11 00:35:38;;;;;;;5.60;1.95;;;2.10;84.30;;;;;;6245425;23;20035;-42
2022/04/11 00:38:05;;;;;;;6.43;2.17;;;2.10;84.30;;;;;;6244949;23;20004;-44
2022/04/11 00:40:32;;;;;;;5.88;2.67;;;2.10;84.50;;;;;;6244924;23;20095;-45
2022/04/11 00:42:58;;;;;;;7.53;2.60;;;2.10;84.40;;;;;;6245050;23;20001;-43
2022/04/11 00:45:25;;;;;;;10.15;3.60;;;2.00;84.50;;;;;;6218472;23;20015;-45
2022/04/11 00:47:52;;;;;;;8.15;2.30;;;2.10;84.60;;;;;;6246709;23;20030;-43
2022/04/11 00:50:19;;;;;;;4.03;2.05;;;2.10;84.20;;;;;;6220414;23;19996;-42
2022/04/11 00:52:50;;;;;;;13.00;2.47;;;2.10;84.40;;;;;;6246767;23;20350;-42
2022/04/11 00:55:20;;;;;;;7.45;2.70;;;2.10;84.30;;;;;;6246802;23;20000;-46
2022/04/11 00:57:48;;;;;;;8.07;2.83;;;2.10;84.10;;;;;;6247133;23;20651;-45
2022/04/11 01:00:16;;;;;;;8.75;2.38;;;2.10;84.00;;;;;;6220188;23;20012;-44
2022/04/11 01:02:42;;;;;;;5.03;2.00;;;2.10;84.10;;;;;;6246170;23;20383;-43
2022/04/11 01:05:12;;;;;;;7.28;2.20;;;2.10;83.90;;;;;;6246867;23;20007;-43
2022/04/11 01:07:39;;;;;;;;;;;2.00;84.00;;;;;;6247709;23;20011;-42
2022/04/11 01:10:08;;;;;;;5.15;1.50;;;2.10;83.80;;;;;;6220286;23;19899;-44
2022/04/11 01:12:34;;;;;;;5.75;2.63;;;2.00;83.70;;;;;;6246766;23;20018;-46
2022/04/11 01:15:01;;;;;;;8.27;2.70;;;2.00;83.90;;;;;;6219821;23;20067;-44
2022/04/11 01:17:38;;;;;;;9.57;2.47;;;2.00;83.80;;;;;;6246729;23;20004;-43
2022/04/11 01:20:10;;;;;;;4.85;2.30;;;2.00;83.90;;;;;;6246861;23;20307;-43
2022/04/11 01:22:38;;;;;;;7.93;2.42;;;1.90;83.90;;;;;;6219846;23;20569;-43
2022/04/11 01:25:05;;;;;;;5.60;2.20;;;1.90;83.80;;;;;;6220440;23;20584;-45
2022/04/11 01:27:35;;;;;;;5.07;2.00;;;1.90;83.90;;;;;;6246341;23;20004;-43
2022/04/11 01:30:01;;;;;;;4.93;1.77;;;1.90;83.90;;;;;;6246499;23;20307;-45
2022/04/11 01:32:28;;;;;;;5.05;2.30;;;1.90;84.00;;;;;;6246632;23;20006;-43
2022/04/11 01:34:58;;;;;;;3.85;2.15;;;1.90;84.00;;;;;;6246286;23;20012;-44
2022/04/11 01:37:25;;;;;;;4.82;2.17;;;1.90;84.10;;;;;;6247040;23;20019;-45
2022/04/11 01:39:52;;;;;;;4.82;2.55;;;1.90;84.20;;;;;;6245971;23;20279;-45
2022/04/11 01:42:19;;;;;;;4.88;2.50;;;1.90;84.10;;;;;;6246789;23;20011;-43
2022/04/11 01:44:46;;;;;;;5.03;2.47;;;1.90;84.10;;;;;;6246042;23;20004;-42
2022/04/11 01:47:15;;;;;;;5.63;2.35;;;1.90;84.20;;;;;;6246732;23;20010;-43
2022/04/11 01:49:45;;;;;;;4.45;2.22;;;1.90;84.30;;;;;;6246034;23;20004;-44
2022/04/11 01:52:11;;;;;;;6.47;2.67;;;1.90;84.20;;;;;;6246396;23;20071;-44
2022/04/11 01:54:41;;;;;;;4.75;2.28;;;1.90;84.20;;;;;;6246712;23;20407;-43
2022/04/11 01:57:15;;;;;;;9.73;2.65;;;1.90;84.30;;;;;;6246477;23;20007;-42
2022/04/11 01:59:42;;;;;;;6.30;2.42;;;1.90;84.20;;;;;;6245658;23;20008;-42
2022/04/11 02:02:09;;;;;;;5.28;2.40;;;1.90;84.10;;;;;;6246455;23;19996;-43
2022/04/11 02:04:36;;;;;;;6.55;2.47;;;2.00;84.00;;;;;;6245490;23;20108;-44
2022/04/11 02:07:02;;;;;;;4.78;2.70;;;2.00;83.80;;;;;;6246193;23;19992;-42
2022/04/11 02:09:29;;;;;;;7.53;2.50;;;2.00;83.70;;;;;;6245601;23;20000;-43
2022/04/11 02:11:55;;;;;;;8.65;2.38;;;1.90;83.70;;;;;;6245522;23;20037;-44
2022/04/11 02:14:22;;;;;;;6.32;2.42;;;1.90;83.80;;;;;;6219059;23;20035;-43
2022/04/11 02:16:49;;;;;;;5.93;2.80;;;1.90;83.90;;;;;;6246241;23;20000;-45
2022/04/11 02:19:19;;;;;;;5.50;2.55;;;1.90;83.80;;;;;;6244381;23;20028;-44
2022/04/11 02:21:46;;;;;;;5.70;2.58;;;1.90;83.80;;;;;;6246180;23;20083;-43
2022/04/11 02:24:16;;;;;;;7.22;2.83;;;1.90;83.80;;;;;;6244867;23;20445;-42
2022/04/11 02:26:43;;;;;;;7.60;2.88;;;1.80;83.90;;;;;;6243988;23;20062;-44
2022/04/11 02:29:10;;;;;;;6.47;3.08;;;1.80;84.10;;;;;;6244886;23;20061;-42
2022/04/11 02:31:37;;;;;;;7.68;2.50;;;1.80;84.00;;;;;;6245884;23;20079;-43
2022/04/11 02:34:04;;;;;;;6.25;2.22;;;1.80;84.00;;;;;;6246116;23;20083;-45
2022/04/11 02:36:32;;;;;;;6.88;2.58;;;1.80;84.10;;;;;;6219937;23;20008;-44
2022/04/11 02:38:58;;;;;;;5.93;2.50;;;1.70;84.10;;;;;;6220097;23;20014;-43
2022/04/11 02:41:26;;;;;;;5.18;2.80;;;1.70;84.20;;;;;;6245955;23;20058;-46
2022/04/11 02:43:53;;;;;;;4.47;2.25;;;1.60;84.20;;;;;;6219254;23;20012;-44
2022/04/11 02:46:18;;;;;;;4.88;2.75;;;1.60;84.30;;;;;;6245169;23;20042;-45
2022/04/11 02:48:44;;;;;;;6.35;2.28;;;1.50;84.50;;;;;;6219364;23;20004;-42
2022/04/11 02:51:11;;;;;;;6.68;2.55;;;1.50;84.40;;;;;;6219067;23;20000;-44
2022/04/11 02:53:37;;;;;;;7.50;2.30;;;1.50;84.50;;;;;;6245322;23;20000;-45
2022/04/11 02:56:05;;;;;;;7.97;2.97;;;1.50;84.50;;;;;;6245593;23;20004;-45
2022/04/11 02:58:32;;;;;;;6.35;2.53;;;1.50;84.50;;;;;;6245864;23;20007;-42
2022/04/11 03:00:59;;;;;;;11.40;4.25;;;1.50;84.30;;;;;;6244526;23;20022;-43
2022/04/11 03:03:26;;;;;;;6.57;2.60;;;1.50;84.20;;;;;;6244646;23;20083;-43
2022/04/11 03:05:53;;;;;;;5.32;2.60;;;1.50;84.50;;;;;;6219332;23;20379;-48
2022/04/11 03:08:20;;;;;;;7.57;2.60;;;1.50;84.40;;;;;;6246033;23;20383;-46
2022/04/11 03:10:46;;;;;;;8.63;2.95;;;1.50;84.40;;;;;;6245223;23;20430;-46
2022/04/11 03:13:13;;;;;;;5.10;2.90;;;1.50;84.30;;;;;;6245567;23;20004;-44
2022/04/11 03:15:39;;;;;;;9.20;2.58;;;1.50;84.30;;;;;;6245692;23;20031;-45
2022/04/11 03:18:05;;;;;;;7.95;2.83;;;1.50;84.30;;;;;;6244364;23;20004;-45
2022/04/11 03:20:32;;;;;;;6.47;2.88;;;1.50;84.30;;;;;;6219762;23;20462;-43
2022/04/11 03:22:59;;;;;;;5.43;2.40;;;1.50;84.30;;;;;;6245873;23;20028;-45
2022/04/11 03:25:26;;;;;;;4.38;2.42;;;1.50;84.10;;;;;;6246199;23;20272;-44
2022/04/11 03:27:52;;;;;;;6.03;2.72;;;1.50;84.30;;;;;;6243826;23;20083;-44
2022/04/11 03:30:17;;;;;;;6.50;2.72;;;1.40;84.20;;;;;;6245364;22;20352;-46
2022/04/11 03:32:44;;;;;;;9.38;3.47;;;1.40;84.20;;;;;;6245560;23;20427;-42
2022/04/11 03:35:11;;;;;;;4.78;2.67;;;1.40;84.10;;;;;;6245448;23;20509;-43
2022/04/11 03:37:38;;;;;;;8.07;2.97;;;1.40;84.30;;;;;;6245726;23;20079;-42
2022/04/11 03:40:06;;;;;;;6.82;2.90;;;1.40;84.40;;;;;;6244990;23;20008;-43
2022/04/11 03:42:33;;;;;;;4.38;2.72;;;1.30;84.30;;;;;;6245745;23;20067;-49
2022/04/11 03:44:59;;;;;;;9.32;3.70;;;1.30;84.60;;;;;;6244963;23;20000;-43
2022/04/11 03:47:27;;;;;;;4.85;2.45;;;1.30;84.50;;;;;;6245583;23;20388;-47
2022/04/11 03:49:54;;;;;;;5.93;2.73;;;1.30;84.70;;;;;;6245752;23;20004;-44
2022/04/11 03:52:21;;;;;;;5.60;2.90;;;1.20;84.80;;;;;;6245710;23;20471;-46
2022/04/11 03:54:48;;;;;;;5.50;2.97;;;1.20;84.80;;;;;;6218664;23;20004;-44
2022/04/11 03:57:14;;;;;;;6.47;3.03;;;1.30;85.00;;;;;;6243960;23;20008;-42
2022/04/11 03:59:41;;;;;;;9.02;3.40;;;1.20;84.90;;;;;;6243809;23;20027;-46
2022/04/11 04:02:08;;;;;;;5.85;2.90;;;1.20;85.00;;;;;;6218793;23;20004;-45
2022/04/11 04:04:35;;;;;;;4.70;2.72;;;1.20;85.00;;;;;;6245254;23;20171;-42
2022/04/11 04:07:02;;;;;;;10.07;3.05;;;1.20;85.00;;;;;;6245156;23;20011;-44
2022/04/11 04:09:29;;;;;;;7.22;2.85;;;1.30;84.90;;;;;;6245223;23;20011;-43
2022/04/11 04:11:55;;;;;;;7.65;2.97;;;1.20;84.70;;;;;;6218777;23;20264;-43
2022/04/11 04:14:21;;;;;;;5.18;2.92;;;1.30;84.60;;;;;;6245315;23;20008;-44
2022/04/11 04:16:47;;;;;;;5.82;2.83;;;1.30;84.50;;;;;;6218511;23;20015;-44
2022/04/11 04:19:13;;;;;;;6.40;2.60;;;1.30;84.50;;;;;;6244713;23;20008;-43
2022/04/11 04:21:44;;;;;;;9.50;3.00;;;1.30;84.60;;;;;;6245128;23;20288;-43
2022/04/11 04:24:11;;;;;;;5.63;3.28;;;1.20;84.90;;;;;;6246290;23;19997;-45
2022/04/11 04:26:37;;;;;;;5.50;2.75;;;1.20;85.00;;;;;;6245187;23;20087;-42
2022/04/11 04:29:04;;;;;;;7.60;2.53;;;1.20;85.00;;;;;;6246550;23;20032;-43
2022/04/11 04:31:31;;;;;;;7.50;2.85;;;1.20;85.10;;;;;;6246022;23;20016;-44
2022/04/11 04:33:58;;;;;;;9.35;3.55;;;1.30;85.20;;;;;;6244792;23;20494;-44
2022/04/11 04:36:25;;;;;;;5.95;3.05;;;1.30;85.30;;;;;;6246448;23;20592;-44
2022/04/11 04:38:51;;;;;;;6.03;3.17;;;1.40;85.40;;;;;;6247129;23;20008;-42
2022/04/11 04:41:19;;;;;;;7.38;3.10;;;1.40;85.20;;;;;;6220405;23;20015;-44
2022/04/11 04:43:46;;;;;;;10.03;3.33;;;1.50;85.20;;;;;;6246931;23;20008;-44
2022/04/11 04:46:12;;;;;;;6.00;3.33;;;1.50;85.10;;;;;;6247470;23;20223;-44
2022/04/11 04:48:38;;;;;;;7.68;3.22;;;1.60;85.00;;;;;;6220292;23;20658;-44
2022/04/11 04:51:08;;;;;;;5.68;3.38;;;1.60;84.90;;;;;;6247408;23;20070;-45
2022/04/11 04:53:35;;;;;;;5.47;3.40;;;1.70;85.00;;;;;;6246838;23;20639;-45
2022/04/11 04:56:02;;;;;;;8.00;4.97;;;1.70;84.70;;;;;;6247436;23;20043;-43
2022/04/11 04:58:29;;;;;;;13.63;5.97;;;1.80;84.80;;;;;;6220026;23;20015;-46
2022/04/11 05:00:59;;;;;;;13.20;7.35;;;1.90;84.80;;;;;;6245679;23;20008;-44
2022/04/11 05:03:26;;;;;;;12.18;6.68;;;1.90;84.70;;;;;;6220203;23;20387;-47
2022/04/11 05:05:54;;;;;;;11.10;5.88;;;1.90;84.50;;;;;;6247165;23;20003;-42
2022/04/11 05:08:21;;;;;;;8.90;4.68;;;2.00;84.40;;;;;;6247077;23;20014;-42
2022/04/11 05:10:50;;;;;;;9.13;5.18;;;2.00;84.40;;;;;;6220191;23;20015;-44
2022/04/11 05:13:17;;;;;;;;;;;2.00;84.40;;;;;;6246858;23;20074;-43
2022/04/11 05:15:46;;;;;;;12.02;4.90;;;2.10;84.30;;;;;;6246430;23;19904;-42
2022/04/11 05:18:13;;;;;;;7.95;4.28;;;2.20;84.30;;;;;;6247428;23;20298;-42
2022/04/11 05:20:44;;;;;;;10.43;4.53;;;2.20;84.10;;;;;;6246577;23;20000;-42
2022/04/11 05:23:11;;;;;;;8.68;4.07;;;2.30;84.00;;;;;;6221332;23;20348;-43
2022/04/11 05:25:38;;;;;;;7.13;3.70;;;2.30;83.60;;;;;;6246877;23;20007;-42
2022/04/11 05:28:07;;;;;;;10.55;3.53;;;2.30;83.40;;;;;;6246620;23;20277;-43
2022/04/11 05:30:35;;;;;;;5.90;3.25;;;2.40;83.50;;;;;;6246340;23;20070;-42
2022/04/11 05:33:06;;;;;;;7.55;3.45;;;2.30;83.30;;;;;;6246356;23;20004;-43
2022/04/11 05:35:32;;;;;;;8.07;4.00;;;2.40;83.60;;;;;;6246494;23;20082;-42
2022/04/11 05:37:59;;;;;;;7.82;3.70;;;2.40;83.40;;;;;;6246700;23;20007;-42
2022/04/11 05:40:25;;;;;;;6.03;3.35;;;2.50;83.30;;;;;;6245182;23;20089;-42
2022/04/11 05:42:52;;;;;;;7.80;3.70;;;2.50;83.30;;;;;;6245439;23;20008;-42
2022/04/11 05:45:19;;;;;;;6.05;4.15;;;2.50;83.00;;;;;;6246686;23;20000;-42
2022/04/11 05:47:46;;;;;;;6.75;3.70;;;2.60;83.00;;;;;;6245282;23;20082;-43
2022/04/11 05:50:12;;;;;;;8.57;4.30;;;2.60;82.30;;;;;;6245157;23;20019;-42
2022/04/11 05:52:43;;;;;;;18.02;6.35;;;2.60;82.60;;;;;;6246219;23;20083;-41
2022/04/11 05:55:09;;;;;;;6.47;3.92;;;2.50;82.60;;;;;;6245058;23;20022;-42
2022/04/11 05:57:36;;;;;;;8.35;3.95;;;2.60;83.00;;;;;;6246490;23;20018;-41
2022/04/11 06:00:03;;;;;;;7.30;3.80;;;2.70;82.70;;;;;;6245778;23;20409;-41
2022/04/11 06:02:30;;;;;;;7.97;3.38;;;2.80;82.80;;;;;;6245008;23;20008;-43
2022/04/11 06:05:00;;;;;;;8.40;3.85;;;2.90;82.60;;;;;;6219989;23;20023;-41
2022/04/11 06:07:28;;;;;;;6.60;3.80;;;3.10;82.60;;;;;;6219621;23;20004;-42
2022/04/11 06:09:55;;;;;;;8.15;3.10;;;3.30;82.40;;;;;;6220467;23;20011;-40
2022/04/11 06:12:24;;;;;;;6.72;3.35;;;3.40;81.80;;;;;;6245286;23;20312;-40
2022/04/11 06:14:53;;;;;;;6.85;3.22;;;3.50;81.30;;;;;;6245565;23;20015;-40
2022/04/11 06:17:23;;;;;;;10.15;3.63;;;3.50;81.30;;;;;;6245823;23;20005;-43
2022/04/11 06:19:54;;;;;;;8.30;3.78;;;3.60;81.10;;;;;;6245665;23;20124;-40
2022/04/11 06:22:22;;;;;;;8.65;4.53;;;3.60;81.00;;;;;;6219371;23;20054;-42
2022/04/11 06:24:52;;;;;;;5.70;3.75;;;3.70;81.10;;;;;;6245871;23;20075;-40
2022/04/11 06:27:19;;;;;;;7.45;3.50;;;3.80;80.80;;;;;;6220182;23;20491;-40
2022/04/11 06:29:44;;;;;;;6.55;3.55;;;3.80;80.60;;;;;;6245637;23;20394;-42
2022/04/11 06:32:11;;;;;;;5.93;3.55;;;3.90;80.60;;;;;;6246628;23;20014;-42
2022/04/11 06:34:39;;;;;;;7.22;3.28;;;4.00;80.60;;;;;;6245758;23;20003;-41
2022/04/11 06:37:06;;;;;;;6.88;3.90;;;4.00;80.50;;;;;;6219901;23;20008;-41
2022/04/11 06:39:32;;;;;;;7.57;3.03;;;4.20;79.90;;;;;;6245629;23;20071;-41
2022/04/11 06:42:00;;;;;;;8.43;3.40;;;4.20;80.00;;;;;;6244812;23;20008;-40
2022/04/11 06:44:26;;;;;;;7.25;3.88;;;4.40;79.80;;;;;;6245637;23;20327;-40
2022/04/11 06:46:52;;;;;;;5.82;3.30;;;4.40;79.60;;;;;;6245726;22;20004;-40
2022/04/11 06:49:19;;;;;;;11.63;3.97;;;4.40;79.90;;;;;;6245239;23;20032;-39
2022/04/11 06:51:45;;;;;;;6.68;3.40;;;4.50;79.90;;;;;;6244805;23;20023;-41
2022/04/11 06:54:12;;;;;;;6.00;3.08;;;4.60;79.70;;;;;;6245238;23;20283;-46
2022/04/11 06:56:38;;;;;;;6.88;3.83;;;4.70;79.00;;;;;;6219186;23;20008;-42
2022/04/11 06:59:05;;;;;;;6.15;3.80;;;4.70;79.00;;;;;;6245182;23;20004;-41
2022/04/11 07:01:31;;;;;;;7.20;3.90;;;4.90;79.10;;;;;;6218691;23;20027;-41
2022/04/11 07:03:58;;;;;;;5.35;3.58;;;4.90;78.80;;;;;;6245581;23;20039;-41
2022/04/11 07:06:25;;;;;;;7.93;3.80;;;5.00;78.40;;;;;;6246557;23;20090;-44
2022/04/11 07:08:51;;;;;;;10.27;3.97;;;5.20;78.20;;;;;;6219166;23;20400;-44
2022/04/11 07:11:21;;;;;;;8.38;4.22;;;5.20;77.60;;;;;;6245650;23;20000;-41
2022/04/11 07:13:47;;;;;;;7.65;3.80;;;5.30;77.90;;;;;;6244991;23;20008;-41
2022/04/11 07:16:13;;;;;;;8.25;4.13;;;5.40;77.70;;;;;;6244343;23;20303;-43
2022/04/11 07:18:40;;;;;;;6.82;3.50;;;5.40;78.20;;;;;;6218635;23;20008;-41
2022/04/11 07:21:07;;;;;;;6.95;2.85;;;5.60;78.10;;;;;;6218829;23;20415;-43
2022/04/11 07:23:33;;;;;;;6.32;3.15;;;5.70;78.10;;;;;;6219193;23;20038;-42
2022/04/11 07:26:01;;;;;;;4.78;2.47;;;5.90;78.00;;;;;;6245306;23;20058;-42
2022/04/11 07:28:28;;;;;;;7.00;2.83;;;6.00;77.60;;;;;;6245988;23;20057;-44
2022/04/11 07:30:55;;;;;;;6.53;3.53;;;6.20;77.10;;;;;;6245576;23;20044;-43
2022/04/11 07:33:23;;;;;;;5.03;2.95;;;6.40;76.90;;;;;;6218963;23;20375;-41
2022/04/11 07:35:50;;;;;;;6.45;3.05;;;6.40;76.30;;;;;;6245659;23;20066;-44
2022/04/11 07:38:16;;;;;;;5.47;2.70;;;6.50;77.10;;;;;;6245029;23;20032;-41
2022/04/11 07:40:43;;;;;;;17.98;5.07;;;6.70;76.80;;;;;;6245438;23;20000;-42
2022/04/11 07:43:10;;;;;;;5.93;3.53;;;6.80;76.70;;;;;;6244784;23;20015;-41
2022/04/11 07:45:36;;;;;;;7.10;3.53;;;7.00;77.00;;;;;;6244353;23;20042;-41
2022/04/11 07:48:03;;;;;;;5.60;2.45;;;7.20;76.30;;;;;;6245144;23;20098;-41
2022/04/11 07:50:29;;;;;;;6.18;2.78;;;7.50;75.80;;;;;;6245273;23;20015;-42
2022/04/11 07:52:56;;;;;;;8.30;3.55;;;7.90;75.20;;;;;;6245394;23;20063;-41
2022/04/11 07:55:24;;;;;;;4.57;2.63;;;8.10;74.80;;;;;;6245324;23;20008;-41
2022/04/11 07:57:51;;;;;;;7.35;3.00;;;8.60;74.50;;;;;;6218546;23;20066;-42
2022/04/11 08:00:18;;;;;;;11.60;3.90;;;9.10;72.10;;;;;;6218729;23;20023;-41
2022/04/11 08:02:44;;;;;;;8.32;2.25;;;9.90;69.80;;;;;;6218156;23;19997;-41
2022/04/11 08:05:11;;;;;;;6.63;3.13;;;10.40;68.20;;;;;;6243907;23;20055;-42
2022/04/11 08:07:38;;;;;;;6.18;2.17;;;10.80;66.10;;;;;;6219213;23;20004;-42
2022/04/11 08:10:06;;;;;;;7.55;3.10;;;11.10;67.10;;;;;;6245419;23;20008;-42
2022/04/11 08:12:35;;;;;;;8.63;2.13;;;11.70;66.10;;;;;;6218681;23;20000;-42
2022/04/11 08:15:04;;;;;;;10.57;2.50;;;12.00;64.00;;;;;;6194419;23;20012;-42
2022/04/11 08:17:31;;;;;;;5.97;2.70;;;12.20;62.90;;;;;;6218761;23;19996;-42
2022/04/11 08:19:58;;;;;;;7.03;2.50;;;12.40;63.10;;;;;;6245486;23;20299;-42
2022/04/11 08:22:25;;;;;;;7.28;2.22;;;12.60;61.90;;;;;;6218210;23;20008;-42
2022/04/11 08:24:52;;;;;;;7.43;3.35;;;13.00;61.80;;;;;;6245324;23;20004;-43
2022/04/11 08:27:18;;;;;;;6.38;2.60;;;13.40;61.50;;;;;;6245350;23;20015;-42
2022/04/11 08:29:44;;;;;;;6.78;2.15;;;13.70;59.60;;;;;;6243251;23;20024;-42
2022/04/11 08:32:12;;;;;;;7.70;2.78;;;13.70;59.30;;;;;;6218879;23;20004;-44
2022/04/11 08:34:38;;;;;;;5.07;2.42;;;13.80;58.90;;;;;;6243178;23;20015;-43
2022/04/11 08:37:05;;;;;;;5.38;1.90;;;13.40;59.10;;;;;;6244088;23;20041;-42
2022/04/11 08:39:31;;;;;;;3.28;1.58;;;13.40;59.40;;;;;;6244820;23;20000;-41
2022/04/11 08:42:01;;;;;;;6.32;2.53;;;13.70;58.40;;;;;;6245317;23;20014;-41
2022/04/11 08:44:29;;;;;;;8.40;2.78;;;13.90;57.80;;;;;;6244979;23;20001;-42
2022/04/11 08:47:01;;;;;;;8.00;2.00;;;14.20;57.20;;;;;;6245218;23;20066;-41
2022/04/11 08:49:31;;;;;;;6.95;2.30;;;14.20;57.60;;;;;;6193514;23;20008;-42
2022/04/11 08:51:58;;;;;;;;;;;13.90;54.80;;;;;;6219746;23;20000;-41
2022/04/11 08:54:25;;;;;;;7.50;2.53;;;13.90;55.80;;;;;;6218512;23;19904;-42
2022/04/11 08:56:52;;;;;;;10.05;6.32;;;13.90;53.30;;;;;;6245143;23;20062;-43
2022/04/11 08:59:19;;;;;;;5.90;2.08;;;14.00;52.30;;;;;;6218007;23;20478;-42
2022/04/11 09:01:46;;;;;;;7.50;2.45;;;14.00;53.60;;;;;;6244727;23;20419;-42
2022/04/11 09:04:15;;;;;;;6.78;2.47;;;14.40;55.10;;;;;;6244943;23;20391;-41
2022/04/11 09:06:42;;;;;;;3.58;1.13;;;14.70;51.10;;;;;;6244967;23;20002;-42
2022/04/11 09:09:08;;;;;;;3.25;1.17;;;14.70;49.80;;;;;;6246048;23;20392;-42
2022/04/11 09:11:52;;;;;;;6.32;1.73;;;14.50;45.30;;;;;;6246897;23;20000;-43
2022/04/11 09:14:26;;;;;;;4.72;1.60;;;14.50;46.30;;;;;;6246758;23;20070;-43
2022/04/11 09:16:53;;;;;;;5.60;1.73;;;14.40;50.00;;;;;;6246856;23;20004;-43
2022/04/11 09:19:21;;;;;;;5.10;1.40;;;14.00;47.60;;;;;;6219336;23;20008;-42
2022/04/11 09:21:54;;;;;;;3.17;0.80;;;13.90;45.00;;;;;;6246919;23;20463;-42
2022/04/11 09:24:26;;;;;;;2.97;1.25;;;14.10;40.00;;;;;;6246578;23;20391;-42
2022/04/11 09:26:56;;;;;;;7.70;2.25;;;13.80;40.10;;;;;;6246594;23;20008;-42
2022/04/11 09:29:24;;;;;;;4.68;1.20;;;13.90;41.20;;;;;;6246438;23;20004;-42
2022/04/11 09:31:52;;;;;;;5.85;3.33;;;13.80;42.50;;;;;;6246173;23;20012;-42
2022/04/11 09:34:37;;;;;;;4.78;2.00;;;13.90;46.40;;;;;;6246222;23;20079;-42
2022/04/11 09:37:08;;;;;;;5.78;1.90;;;13.90;44.70;;;;;;6246162;23;20055;-42
2022/04/11 09:39:37;;;;;;;6.60;1.90;;;13.60;49.60;;;;;;6219804;23;20004;-42
2022/04/11 09:42:05;;;;;;;5.20;1.80;;;13.90;50.40;;;;;;6246148;23;20000;-42
2022/04/11 09:44:37;;;;;;;4.97;1.98;;;14.20;50.00;;;;;;6246377;23;20303;-42
2022/04/11 09:47:05;;;;;;;7.15;1.95;;;14.10;48.60;;;;;;6246640;23;20007;-43
2022/04/11 09:49:33;;;;;;;3.17;1.75;;;14.30;48.10;;;;;;6245851;23;20027;-47
2022/04/11 09:52:13;;;;;;;9.27;3.20;;;14.90;49.00;;;;;;6246178;23;20310;-44
2022/04/11 09:54:58;;;;;;;8.50;3.10;;;14.90;48.90;;;;;;6219075;23;20403;-45
2022/04/11 09:57:31;;;;;;;7.93;2.70;;;14.70;52.20;;;;;;6194711;23;20008;-42
2022/04/11 10:00:04;;;;;;;6.95;2.50;;;14.40;51.70;;;;;;6245697;23;20000;-42
2022/04/11 10:02:31;;;;;;;7.85;3.05;;;14.10;53.40;;;;;;6246609;23;20055;-44
2022/04/11 10:04:58;;;;;;;6.43;3.03;;;13.80;52.10;;;;;;6246262;23;20007;-44
2022/04/11 10:07:25;;;;;;;6.13;2.45;;;13.40;50.60;;;;;;6246370;23;20071;-45
2022/04/11 10:09:53;;;;;;;7.05;2.67;;;13.40;55.40;;;;;;6219710;23;20004;-42
2022/04/11 10:12:20;;;;;;;6.68;2.63;;;13.40;56.40;;;;;;6194309;23;19996;-42
2022/04/11 10:14:46;;;;;;;7.90;2.50;;;13.30;56.60;;;;;;6245804;23;19996;-44
2022/04/11 10:17:13;;;;;;;8.20;2.92;;;13.40;56.40;;;;;;6246554;23;20000;-42
2022/04/11 10:19:42;;;;;;;7.03;2.65;;;13.10;55.40;;;;;;6245415;23;20430;-41
2022/04/11 10:22:21;;;;;;;5.45;2.15;;;12.40;56.60;;;;;;6246253;23;20000;-42
2022/04/11 10:25:06;;;;;;;8.35;2.30;;;11.80;57.90;;;;;;6246022;23;20012;-45
2022/04/11 10:27:33;;;;;;;5.32;2.25;;;11.20;59.00;;;;;;6219994;23;20008;-42
2022/04/11 10:29:59;;;;;;;9.25;2.33;;;11.10;61.20;;;;;;6245652;23;20043;-43
2022/04/11 10:32:29;;;;;;;6.20;2.15;;;11.50;62.10;;;;;;6219907;23;20004;-42
2022/04/11 10:35:00;;;;;;;6.00;1.85;;;11.80;59.20;;;;;;6245594;23;20004;-42
2022/04/11 10:37:41;;;;;;;5.90;2.40;;;12.00;60.50;;;;;;6246083;23;20407;-42
2022/04/11 10:40:15;;;;;;;7.28;2.47;;;12.30;60.60;;;;;;6219423;23;20495;-43
2022/04/11 10:43:00;;;;;;;7.07;2.10;;;12.40;57.90;;;;;;6245237;23;20008;-44
2022/04/11 10:45:41;;;;;;;4.13;2.08;;;12.70;57.40;;;;;;6246435;23;20004;-45
2022/04/11 10:48:08;;;;;;;5.47;2.05;;;12.60;57.50;;;;;;6245309;23;20075;-43
2022/04/11 10:50:52;;;;;;;5.53;2.10;;;12.80;58.20;;;;;;6245162;23;20087;-43
2022/04/11 10:53:24;;;;;;;6.07;2.35;;;12.90;57.60;;;;;;6218396;23;20011;-43
2022/04/11 10:56:04;;;;;;;8.88;2.08;;;12.90;57.90;;;;;;6219869;23;20011;-43
2022/04/11 10:58:49;;;;;;;6.97;1.95;;;12.90;56.50;;;;;;6245277;23;20011;-44
2022/04/11 11:01:49;;;;;;;6.72;1.90;;;12.90;55.10;;;;;;6218504;23;20315;-43
2022/04/11 11:04:21;;;;;;;5.88;1.88;;;12.80;55.70;;;;;;6235558;23;20011;-43
2022/04/11 11:07:08;;;;;;;5.75;2.33;;;12.70;54.40;;;;;;6219438;23;20001;-45
2022/04/11 11:09:42;;;;;;;5.97;1.90;;;12.50;57.30;;;;;;6245703;23;20008;-42
2022/04/11 11:12:22;;;;;;;5.28;1.83;;;12.30;56.80;;;;;;6245514;23;20043;-42
2022/04/11 11:14:49;;;;;;;7.00;2.08;;;12.20;53.90;;;;;;6245827;23;19996;-43
2022/04/11 11:17:15;;;;;;;6.13;2.20;;;12.40;56.30;;;;;;6219391;23;20047;-43
2022/04/11 11:20:07;;;;;;;8.05;3.00;;;12.30;54.40;;;;;;6245456;23;20000;-44
2022/04/11 11:23:25;;;;;;;8.63;2.72;;;12.30;58.10;;;;;;6245243;23;20051;-45
2022/04/11 11:25:54;;;;;;;8.98;2.50;;;12.40;60.40;;;;;;6215648;23;20054;-43
2022/04/11 11:28:21;;;;;;;7.53;2.22;;;12.40;58.80;;;;;;6246214;23;20023;-46
2022/04/11 11:30:48;;;;;;;6.20;2.10;;;12.30;59.80;;;;;;6219162;23;20012;-43
2022/04/11 11:33:16;;;;;;;7.07;2.00;;;12.40;58.00;;;;;;6245529;23;20047;-44
2022/04/11 11:35:49;;;;;;;11.45;2.20;;;12.10;56.70;;;;;;6245213;23;20639;-47
2022/04/11 11:38:23;;;;;;;6.05;2.00;;;12.20;58.80;;;;;;6245359;23;20086;-42
2022/04/11 11:40:58;;;;;;;6.38;2.67;;;12.00;58.90;;;;;;6218077;23;20071;-43
2022/04/11 11:43:28;;;;;;;8.77;2.55;;;11.90;58.90;;;;;;6245543;23;20079;-43
2022/04/11 11:46:00;;;;;;;;;;;12.10;60.50;;;;;;6245995;23;20426;-42
2022/04/11 11:48:34;;;;;;;4.95;2.30;;;11.90;56.90;;;;;;6245489;23;20270;-43
2022/04/11 11:51:01;;;;;;;5.25;1.80;;;11.90;57.40;;;;;;6219416;23;20011;-44
2022/04/11 11:53:51;;;;;;;5.03;2.35;;;12.10;58.40;;;;;;6245173;23;20008;-42
2022/04/11 11:56:18;;;;;;;;;;;12.20;56.40;;;;;;6246068;23;20070;-44
2022/04/11 11:58:45;;;;;;;6.60;2.17;;;12.10;57.90;;;;;;6244854;23;19900;-43
2022/04/11 12:01:12;;;;;;;8.35;2.28;;;12.20;58.00;;;;;;6245364;23;20023;-44
2022/04/11 12:06:28;;;;;;;4.90;1.90;;;12.00;58.30;;;;;;6245249;23;20019;-43
2022/04/11 12:09:03;;;;;;;21.63;5.30;;;11.90;57.80;;;;;;6194221;23;20008;-42
2022/04/11 12:11:30;;;;;;;7.68;2.90;;;11.90;56.70;;;;;;6245331;23;20286;-45
2022/04/11 12:14:08;;;;;;;6.18;2.20;;;11.80;57.40;;;;;;6218947;23;20072;-45
2022/04/11 12:16:40;;;;;;;5.72;1.85;;;11.90;54.90;;;;;;6244947;23;20289;-43
2022/04/11 12:19:07;;;;;;;7.57;2.63;;;11.50;56.50;;;;;;6245382;23;20004;-44
2022/04/11 12:21:51;;;;;;;6.85;2.00;;;11.40;56.00;;;;;;6245094;23;20004;-43
2022/04/11 12:24:30;;;;;;;7.07;2.15;;;11.50;58.90;;;;;;6245166;23;20032;-45
2022/04/11 12:26:57;;;;;;;6.40;1.83;;;11.40;57.60;;;;;;6218411;23;20058;-42
2022/04/11 12:29:28;;;;;;;7.53;2.22;;;11.40;56.40;;;;;;6245157;23;20012;-44
2022/04/11 12:32:13;;;;;;;6.38;1.80;;;11.40;58.20;;;;;;6218315;23;20012;-43
2022/04/11 12:34:44;;;;;;;7.43;2.08;;;11.20;57.80;;;;;;6245087;23;20000;-46
2022/04/11 12:37:13;;;;;;;6.85;2.00;;;11.30;59.80;;;;;;6244967;23;20031;-45
2022/04/11 12:39:59;;;;;;;8.50;2.78;;;11.40;60.90;;;;;;6245375;23;20315;-45
2022/04/11 12:42:28;;;;;;;8.85;1.85;;;11.20;61.50;;;;;;6244007;23;20016;-43
2022/04/11 12:45:07;;;;;;;6.72;2.03;;;11.30;58.10;;;;;;6246955;23;20027;-42
2022/04/11 12:48:01;;;;;;;7.72;1.73;;;11.30;60.30;;;;;;6219646;23;20038;-45
2022/04/11 12:50:28;;;;;;;5.90;2.20;;;11.40;62.20;;;;;;6220285;23;20075;-42
2022/04/11 12:52:56;;;;;;;8.95;2.42;;;11.40;62.50;;;;;;6219744;23;20019;-43
2022/04/11 12:55:30;;;;;;;8.45;2.45;;;11.30;60.60;;;;;;6247326;23;20000;-43
2022/04/11 12:58:00;;;;;;;7.25;2.10;;;11.30;62.80;;;;;;6246275;23;20403;-43
2022/04/11 13:00:28;;;;;;;9.02;3.13;;;11.40;62.30;;;;;;6246414;23;20008;-43
2022/04/11 13:02:56;;;;;;;9.52;2.83;;;11.50;64.50;;;;;;6220987;23;20062;-42
2022/04/11 13:05:26;;;;;;;9.63;3.70;;;11.40;61.00;;;;;;6247235;23;20000;-43